Time,TemperatureF,DewpointF,PressureIn,WindDirection,WindDirectionDegrees,WindSpeedMPH,WindSpeedGustMPH,Humidity,HourlyPrecipIn,Conditions,Clouds,dailyrainin,SolarRadiationWatts/m^2,SoftwareType,DateUTC
2013-08-07 00:01:00,70.3,63.2,30.03,SSE,158,2.6,2.6,78,0.00,CLR,,0.00,0.0,WeatherDisplay:10.37,2013-08-07 04:01:00,
2013-08-07 00:06:00,70.2,62.6,30.03,ESE,112,3.5,3.5,77,0.00,CLR,,0.00,0.0,WeatherDisplay:10.37,2013-08-07 04:06:00,
2013-08-07 00:11:00,70.0,62.8,30.03,ESE,112,2.9,2.9,78,0.00,CLR,,0.00,0.0,WeatherDisplay:10.37,2013-08-07 04:11:00,
2013-08-07 00:16:00,69.6,62.8,30.03,ESE,112,2.3,2.3,79,0.00,CLR,,0.00,0.0,WeatherDisplay:10.37,2013-08-07 04:16:00,
2013-08-07 00:21:00,69.1,62.3,30.03,ENE,68,0.0,0.0,79,0.00,CLR,,0.00,0.0,WeatherDisplay:10.37,2013-08-07 04:21:00,
2013-08-07 00:26:00,68.7,62.3,30.03,ESE,112,0.0,0.0,80,0.00,CLR,,0.00,0.0,WeatherDisplay:10.37,2013-08-07 04:26:00,
2013-08-07 00:31:00,68.5,62.5,30.03,ESE,112,0.0,0.0,81,0.00,CLR,,0.00,0.0,WeatherDisplay:10.37,2013-08-07 04:31:00,
2013-08-07 00:36:00,68.2,62.1,30.03,ESE,112,0.0,0.0,81,0.00,CLR,,0.00,0.0,WeatherDisplay:10.37,2013-08-07 04:36:00,
2013-08-07 00:41:00,67.6,62.6,30.03,ENE,68,1.2,0.0,84,0.00,CLR,,0.00,0.0,WeatherDisplay:10.37,2013-08-07 04:41:00,
2013-08-07 00:46:00,67.5,62.8,30.03,ENE,68,2.3,2.3,85,0.00,CLR,,0.00,0.0,WeatherDisplay:10.37,2013-08-07 04:46:00,
2013-08-07 00:51:00,67.1,62.4,30.03,ENE,68,0.0,0.0,85,0.00,CLR,,0.00,0.0,WeatherDisplay:10.37,2013-08-07 04:51:00,
2013-08-07 00:56:00,66.7,62.1,30.03,ENE,68,0.0,0.0,85,0.00,CLR,,0.00,0.0,WeatherDisplay:10.37,2013-08-07 04:56:00,
2013-08-07 01:01:00,66.6,62.2,30.03,ENE,68,0.0,0.0,86,0.00,CLR,,0.00,0.0,WeatherDisplay:10.37,2013-08-07 05:01:00,
2013-08-07 01:06:00,66.4,62.1,30.03,ENE,68,0.0,0.0,86,0.00,CLR,,0.00,0.0,WeatherDisplay:10.37,2013-08-07 05:06:00,
2013-08-07 01:11:00,66.2,62.2,30.03,ESE,112,0.0,0.0,87,0.00,CLR,,0.00,0.0,WeatherDisplay:10.37,2013-08-07 05:11:00,
2013-08-07 01:16:00,65.8,61.9,30.03,ESE,112,0.0,0.0,87,0.00,CLR,,0.00,0.0,WeatherDisplay:10.37,2013-08-07 05:16:00,
2013-08-07 01:21:00,65.7,62.0,30.03,ESE,112,0.0,0.0,88,0.00,CLR,,0.00,0.0,WeatherDisplay:10.37,2013-08-07 05:21:00,
2013-08-07 01:26:00,65.5,61.8,30.03,East,90,0.0,0.0,88,0.00,CLR,,0.00,0.0,WeatherDisplay:10.37,2013-08-07 05:26:00,
2013-08-07 01:31:00,65.1,61.8,30.03,ENE,68,0.0,0.0,89,0.00,CLR,,0.00,0.0,WeatherDisplay:10.37,2013-08-07 05:31:00,
2013-08-07 01:36:00,64.9,61.6,30.03,ENE,68,0.0,0.0,89,0.00,CLR,,0.00,0.0,WeatherDisplay:10.37,2013-08-07 05:36:00,
2013-08-07 01:41:00,64.9,61.9,30.03,ENE,68,0.0,0.0,90,0.00,CLR,,0.00,0.0,WeatherDisplay:10.37,2013-08-07 05:41:00,
2013-08-07 01:46:00,65.1,62.7,30.03,ENE,68,1.4,0.0,92,0.00,CLR,,0.00,0.0,WeatherDisplay:10.37,2013-08-07 05:46:00,
2013-08-07 01:51:00,64.9,62.2,30.03,East,90,0.0,0.0,91,0.00,CLR,,0.00,0.0,WeatherDisplay:10.37,2013-08-07 05:51:00,
2013-08-07 01:56:00,65.1,62.4,30.03,East,90,0.0,0.0,91,0.00,CLR,,0.00,0.0,WeatherDisplay:10.37,2013-08-07 05:56:00,
2013-08-07 02:01:00,65.3,62.6,30.03,East,90,0.0,0.0,91,0.00,CLR,,0.00,0.0,WeatherDisplay:10.37,2013-08-07 06:01:00,
2013-08-07 02:06:00,65.3,62.6,30.03,ESE,112,0.0,0.0,91,0.00,CLR,,0.00,0.0,WeatherDisplay:10.37,2013-08-07 06:06:00,
2013-08-07 02:11:00,65.5,63.1,30.03,ENE,68,2.4,2.4,92,0.00,CLR,,0.00,0.0,WeatherDisplay:10.37,2013-08-07 06:11:00,
2013-08-07 02:16:00,65.7,63.3,30.03,ENE,68,2.3,2.3,92,0.00,CLR,,0.00,0.0,WeatherDisplay:10.37,2013-08-07 06:16:00,
2013-08-07 02:21:00,65.8,63.1,30.03,ESE,112,2.3,2.3,91,0.00,CLR,,0.00,0.0,WeatherDisplay:10.37,2013-08-07 06:21:00,
2013-08-07 02:26:00,66.0,63.3,30.03,ESE,112,0.0,0.0,91,0.00,CLR,,0.00,0.0,WeatherDisplay:10.37,2013-08-07 06:26:00,
2013-08-07 02:31:00,66.2,63.2,30.03,ESE,112,0.0,0.0,90,0.00,CLR,,0.00,0.0,WeatherDisplay:10.37,2013-08-07 06:31:00,
2013-08-07 02:36:00,66.4,63.4,30.03,ESE,112,2.3,2.3,90,0.00,CLR,,0.00,0.0,WeatherDisplay:10.37,2013-08-07 06:36:00,
2013-08-07 02:41:00,66.7,63.4,30.03,SSE,158,1.2,1.2,89,0.00,CLR,,0.00,0.0,WeatherDisplay:10.37,2013-08-07 06:41:00,
2013-08-07 02:46:00,66.9,63.6,30.03,SSE,158,2.3,2.3,89,0.00,CLR,,0.00,0.0,WeatherDisplay:10.37,2013-08-07 06:46:00,
2013-08-07 02:51:00,66.9,63.6,30.03,ESE,112,1.2,0.0,89,0.00,CLR,,0.00,0.0,WeatherDisplay:10.37,2013-08-07 06:51:00,
2013-08-07 02:56:00,67.1,63.4,30.03,ESE,112,2.3,2.3,88,0.00,CLR,,0.00,0.0,WeatherDisplay:10.37,2013-08-07 06:56:00,
2013-08-07 03:01:00,67.1,63.4,30.03,ESE,112,1.4,0.0,88,0.00,CLR,,0.00,0.0,WeatherDisplay:10.37,2013-08-07 07:01:00,
2013-08-07 03:06:00,66.9,63.2,30.03,ESE,112,0.0,0.0,88,0.00,CLR,,0.00,0.0,WeatherDisplay:10.37,2013-08-07 07:06:00,
2013-08-07 03:11:00,66.9,63.2,30.03,SSE,158,0.0,0.0,88,0.00,CLR,,0.00,0.0,WeatherDisplay:10.37,2013-08-07 07:11:00,
2013-08-07 03:16:00,66.9,63.2,30.03,SE,135,1.4,0.0,88,0.00,CLR,,0.00,0.0,WeatherDisplay:10.37,2013-08-07 07:16:00,
2013-08-07 03:21:00,66.9,63.2,30.03,SSE,158,0.0,0.0,88,0.00,CLR,,0.00,0.0,WeatherDisplay:10.37,2013-08-07 07:21:00,
2013-08-07 03:26:00,66.9,63.2,30.03,ESE,112,2.3,2.3,88,0.00,CLR,,0.00,0.0,WeatherDisplay:10.37,2013-08-07 07:26:00,
2013-08-07 03:31:00,66.9,63.2,30.03,ESE,112,1.2,1.2,88,0.00,CLR,,0.00,0.0,WeatherDisplay:10.37,2013-08-07 07:31:00,
2013-08-07 03:36:00,66.7,63.1,30.03,ESE,112,0.0,0.0,88,0.00,CLR,,0.00,0.0,WeatherDisplay:10.37,2013-08-07 07:36:00,
2013-08-07 03:41:00,66.4,62.7,30.03,SSE,158,0.0,0.0,88,0.00,CLR,,0.00,0.0,WeatherDisplay:10.37,2013-08-07 07:41:00,
2013-08-07 03:46:00,66.4,62.7,30.00,ESE,112,1.2,0.0,88,0.00,CLR,,0.00,0.0,WeatherDisplay:10.37,2013-08-07 07:46:00,
2013-08-07 03:51:00,66.2,62.9,30.00,East,90,0.0,0.0,89,0.00,CLR,,0.00,0.0,WeatherDisplay:10.37,2013-08-07 07:51:00,
2013-08-07 03:56:00,65.8,62.8,30.00,East,90,0.0,0.0,90,0.00,CLR,,0.00,0.0,WeatherDisplay:10.37,2013-08-07 07:56:00,
2013-08-07 04:02:00,65.7,62.6,30.03,ESE,112,0.0,0.0,90,0.00,CLR,,0.00,0.0,WeatherDisplay:10.37,2013-08-07 08:02:00,
2013-08-07 04:07:00,65.7,62.6,30.03,SE,135,0.0,0.0,90,0.00,CLR,,0.00,0.0,WeatherDisplay:10.37,2013-08-07 08:07:00,
2013-08-07 04:12:00,65.7,63.0,30.03,ESE,112,2.2,0.0,91,0.00,CLR,,0.00,0.0,WeatherDisplay:10.37,2013-08-07 08:12:00,
2013-08-07 04:17:00,65.5,62.8,30.00,ESE,112,2.3,2.3,91,0.00,CLR,,0.00,0.0,WeatherDisplay:10.37,2013-08-07 08:17:00,
2013-08-07 04:22:00,65.5,62.8,30.00,ESE,112,1.2,1.2,91,0.00,CLR,,0.00,0.0,WeatherDisplay:10.37,2013-08-07 08:22:00,
2013-08-07 04:27:00,65.7,63.0,30.00,ESE,112,2.4,2.4,91,0.00,CLR,,0.00,0.0,WeatherDisplay:10.37,2013-08-07 08:27:00,
2013-08-07 04:32:00,65.8,63.1,30.00,SSE,158,1.2,1.2,91,0.00,CLR,,0.00,0.0,WeatherDisplay:10.37,2013-08-07 08:32:00,
2013-08-07 04:37:00,65.8,63.1,30.00,SSE,158,2.3,2.3,91,0.00,CLR,,0.00,0.0,WeatherDisplay:10.37,2013-08-07 08:37:00,
2013-08-07 04:42:00,65.7,63.0,30.00,East,90,2.3,2.3,91,0.00,CLR,,0.00,0.0,WeatherDisplay:10.37,2013-08-07 08:42:00,
2013-08-07 04:47:00,65.7,63.3,30.00,ESE,112,2.3,2.3,92,0.00,CLR,,0.00,0.0,WeatherDisplay:10.37,2013-08-07 08:47:00,
2013-08-07 04:52:00,65.8,63.1,30.00,ESE,112,1.6,1.6,91,0.00,CLR,,0.00,0.0,WeatherDisplay:10.37,2013-08-07 08:52:00,
2013-08-07 04:57:00,66.0,63.3,30.00,ESE,112,0.0,0.0,91,0.00,CLR,,0.00,0.0,WeatherDisplay:10.37,2013-08-07 08:57:00,
2013-08-07 05:02:00,66.0,63.3,30.00,ESE,112,0.0,0.0,91,0.00,CLR,,0.00,0.0,WeatherDisplay:10.37,2013-08-07 09:02:00,
2013-08-07 05:07:00,66.2,63.5,30.00,ESE,112,1.2,0.0,91,0.00,CLR,,0.00,0.0,WeatherDisplay:10.37,2013-08-07 09:07:00,
2013-08-07 05:12:00,66.0,63.3,30.00,SE,135,1.4,1.4,91,0.00,CLR,,0.00,0.0,WeatherDisplay:10.37,2013-08-07 09:12:00,
2013-08-07 05:17:00,66.2,63.5,30.03,East,90,1.2,0.0,91,0.00,CLR,,0.00,0.0,WeatherDisplay:10.37,2013-08-07 09:17:00,
2013-08-07 05:22:00,66.4,63.7,30.03,ESE,112,1.2,1.2,91,0.00,CLR,,0.00,0.0,WeatherDisplay:10.37,2013-08-07 09:22:00,
2013-08-07 05:27:00,66.6,63.9,30.03,ESE,112,1.2,0.0,91,0.00,CLR,,0.00,0.0,WeatherDisplay:10.37,2013-08-07 09:27:00,
2013-08-07 05:32:00,66.6,63.9,30.00,East,90,2.4,2.4,91,0.00,CLR,,0.00,0.0,WeatherDisplay:10.37,2013-08-07 09:32:00,
2013-08-07 05:37:00,66.6,63.9,30.00,ESE,112,2.3,0.0,91,0.00,CLR,,0.00,0.0,WeatherDisplay:10.37,2013-08-07 09:37:00,
2013-08-07 05:42:00,66.6,63.9,30.00,ESE,112,0.0,0.0,91,0.00,CLR,,0.00,0.0,WeatherDisplay:10.37,2013-08-07 09:42:00,
2013-08-07 05:47:00,66.6,64.2,30.00,East,90,3.5,3.5,92,0.00,CLR,,0.00,0.0,WeatherDisplay:10.37,2013-08-07 09:47:00,
2013-08-07 05:52:00,66.6,64.2,30.00,ESE,112,2.3,2.3,92,0.00,CLR,,0.00,0.0,WeatherDisplay:10.37,2013-08-07 09:52:00,
2013-08-07 05:57:00,66.7,64.3,30.00,ESE,112,3.3,3.3,92,0.00,CLR,,0.00,0.0,WeatherDisplay:10.37,2013-08-07 09:57:00,
2013-08-07 06:02:00,66.6,63.9,30.00,ESE,112,2.3,0.0,91,0.00,CLR,,0.00,0.0,WeatherDisplay:10.37,2013-08-07 10:02:00,
2013-08-07 06:07:00,66.7,64.0,30.00,SSE,158,2.3,2.3,91,0.00,CLR,,0.00,0.0,WeatherDisplay:10.37,2013-08-07 10:07:00,
2013-08-07 06:12:00,66.7,64.3,30.00,SSE,158,2.6,2.6,92,0.00,CLR,,0.00,0.0,WeatherDisplay:10.37,2013-08-07 10:12:00,
2013-08-07 06:17:00,66.9,64.5,30.00,SSE,158,1.2,1.2,92,0.00,CLR,,0.00,0.0,WeatherDisplay:10.37,2013-08-07 10:17:00,
2013-08-07 06:22:00,67.1,64.7,30.00,ESE,112,3.5,3.5,92,0.00,CLR,,0.00,0.0,WeatherDisplay:10.37,2013-08-07 10:22:00,
2013-08-07 06:27:00,67.3,64.9,30.00,ESE,112,2.3,0.0,92,0.00,CLR,,0.00,0.0,WeatherDisplay:10.37,2013-08-07 10:27:00,
2013-08-07 06:32:00,67.3,64.6,30.00,ESE,112,2.0,2.0,91,0.00,CLR,,0.00,0.0,WeatherDisplay:10.37,2013-08-07 10:32:00,
2013-08-07 06:37:00,67.1,64.7,30.00,ENE,68,3.6,3.6,92,0.00,CLR,,0.00,0.0,WeatherDisplay:10.37,2013-08-07 10:37:00,
2013-08-07 06:42:00,66.9,64.5,30.00,SSE,158,0.0,0.0,92,0.00,CLR,,0.00,0.0,WeatherDisplay:10.37,2013-08-07 10:42:00,
2013-08-07 06:47:00,66.7,64.3,30.00,ESE,112,2.3,2.3,92,0.00,CLR,,0.00,0.0,WeatherDisplay:10.37,2013-08-07 10:47:00,
2013-08-07 06:52:00,66.6,64.2,30.00,ESE,112,2.3,0.0,92,0.00,CLR,,0.00,0.0,WeatherDisplay:10.37,2013-08-07 10:52:00,
2013-08-07 06:57:00,66.6,64.2,30.00,SSE,158,1.2,0.0,92,0.00,CLR,,0.00,0.0,WeatherDisplay:10.37,2013-08-07 10:57:00,
2013-08-07 07:02:00,66.7,64.3,30.00,East,90,1.2,0.0,92,0.00,CLR,,0.00,0.0,WeatherDisplay:10.37,2013-08-07 11:02:00,
2013-08-07 07:07:00,66.7,64.3,30.00,SSE,158,1.2,0.0,92,0.00,CLR,,0.00,0.0,WeatherDisplay:10.37,2013-08-07 11:07:00,
2013-08-07 07:12:00,66.9,64.5,30.00,SE,135,2.6,2.6,92,0.00,CLR,,0.00,0.0,WeatherDisplay:10.37,2013-08-07 11:12:00,
2013-08-07 07:17:00,67.3,64.9,30.00,ESE,112,2.9,2.9,92,0.00,CLR,,0.00,0.0,WeatherDisplay:10.37,2013-08-07 11:17:00,
2013-08-07 07:22:00,67.6,65.2,30.00,ESE,112,2.3,2.3,92,0.00,CLR,,0.00,0.0,WeatherDisplay:10.37,2013-08-07 11:22:00,
2013-08-07 07:27:00,67.8,65.4,30.00,SSE,158,3.5,3.5,92,0.00,CLR,,0.00,0.0,WeatherDisplay:10.37,2013-08-07 11:27:00,
2013-08-07 07:32:00,68.2,65.5,30.00,South,180,1.4,1.4,91,0.00,CLR,,0.00,0.0,WeatherDisplay:10.37,2013-08-07 11:32:00,
2013-08-07 07:37:00,68.4,65.6,30.00,SSE,158,1.2,0.0,91,0.00,CLR,,0.00,0.0,WeatherDisplay:10.37,2013-08-07 11:37:00,
2013-08-07 07:42:00,68.5,65.8,30.00,East,90,2.3,2.3,91,0.00,CLR,,0.00,0.0,WeatherDisplay:10.37,2013-08-07 11:42:00,
2013-08-07 07:47:00,68.7,66.0,30.00,SE,135,0.0,0.0,91,0.00,CLR,,0.00,0.0,WeatherDisplay:10.37,2013-08-07 11:47:00,
2013-08-07 07:52:00,68.7,65.7,30.00,ESE,112,0.0,0.0,90,0.00,CLR,,0.00,0.0,WeatherDisplay:10.37,2013-08-07 11:52:00,
2013-08-07 07:57:00,68.7,65.7,30.00,ENE,68,1.2,1.2,90,0.00,CLR,,0.00,0.0,WeatherDisplay:10.37,2013-08-07 11:57:00,
2013-08-07 08:02:00,68.9,66.2,30.00,ESE,112,1.2,1.4,91,0.00,CLR,,0.00,0.0,WeatherDisplay:10.37,2013-08-07 12:02:00,
2013-08-07 08:07:00,69.3,66.2,30.00,ENE,68,2.3,2.3,90,0.00,CLR,,0.00,0.0,WeatherDisplay:10.37,2013-08-07 12:07:00,
2013-08-07 08:12:00,69.6,66.6,30.00,ENE,68,1.2,1.2,90,0.00,CLR,,0.00,0.0,WeatherDisplay:10.37,2013-08-07 12:12:00,
2013-08-07 08:17:00,69.8,66.7,30.00,South,180,3.5,3.5,90,0.00,CLR,,0.00,0.0,WeatherDisplay:10.37,2013-08-07 12:17:00,
2013-08-07 08:22:00,70.2,67.1,30.00,SSW,202,4.6,4.6,90,0.00,CLR,,0.00,0.0,WeatherDisplay:10.37,2013-08-07 12:22:00,
2013-08-07 08:27:00,70.3,66.9,30.00,ESE,112,2.3,2.3,89,0.00,CLR,,0.00,0.0,WeatherDisplay:10.37,2013-08-07 12:27:00,
2013-08-07 08:32:00,70.7,67.3,30.00,SSW,202,2.3,2.3,89,0.00,CLR,,0.00,0.0,WeatherDisplay:10.37,2013-08-07 12:32:00,
2013-08-07 08:37:00,71.1,67.7,30.00,SSE,158,3.5,3.5,89,0.00,CLR,,0.00,0.0,WeatherDisplay:10.37,2013-08-07 12:37:00,
2013-08-07 08:42:00,71.8,68.0,30.00,SSE,158,3.5,3.5,88,0.00,CLR,,0.00,0.0,WeatherDisplay:10.37,2013-08-07 12:42:00,
2013-08-07 08:47:00,72.0,67.9,30.03,South,180,2.4,2.4,87,0.00,CLR,,0.00,0.0,WeatherDisplay:10.37,2013-08-07 12:47:00,
2013-08-07 08:52:00,72.0,67.5,30.03,SSW,202,3.5,3.5,86,0.00,CLR,,0.00,0.0,WeatherDisplay:10.37,2013-08-07 12:52:00,
2013-08-07 08:57:00,72.0,67.5,30.00,SSE,158,3.5,3.5,86,0.00,CLR,,0.00,0.0,WeatherDisplay:10.37,2013-08-07 12:57:00,
2013-08-07 09:02:00,72.1,67.7,30.00,SSW,202,2.3,2.4,86,0.00,CLR,,0.00,0.0,WeatherDisplay:10.37,2013-08-07 13:02:00,
2013-08-07 09:07:00,72.9,68.1,30.00,SSW,202,2.3,2.4,85,0.00,CLR,,0.00,200.0,WeatherDisplay:10.37,2013-08-07 13:07:00,
2013-08-07 09:12:00,73.2,68.4,30.00,ESE,112,3.5,3.6,85,0.00,CLR,,0.00,100.0,WeatherDisplay:10.37,2013-08-07 13:12:00,
2013-08-07 09:18:00,73.0,67.9,30.03,SSE,158,4.6,4.6,84,0.00,CLR,,0.00,100.0,WeatherDisplay:10.37,2013-08-07 13:18:00,
2013-08-07 09:23:00,73.2,68.1,30.03,SW,225,3.6,3.6,84,0.00,CLR,,0.00,100.0,WeatherDisplay:10.37,2013-08-07 13:23:00,
2013-08-07 09:28:00,73.6,68.4,30.03,SSW,202,2.3,2.3,84,0.00,CLR,,0.00,400.0,WeatherDisplay:10.37,2013-08-07 13:28:00,
2013-08-07 09:33:00,74.1,69.0,30.03,South,180,4.6,4.6,84,0.00,CLR,,0.00,500.0,WeatherDisplay:10.37,2013-08-07 13:33:00,
2013-08-07 09:38:00,74.5,69.0,30.03,SSW,202,4.6,4.6,83,0.00,CLR,,0.00,500.0,WeatherDisplay:10.37,2013-08-07 13:38:00,
2013-08-07 09:43:00,74.8,69.0,30.00,SSE,158,5.8,5.8,82,0.00,CLR,,0.00,200.0,WeatherDisplay:10.37,2013-08-07 13:43:00,
2013-08-07 09:48:00,75.2,69.0,30.00,ESE,112,4.6,4.6,81,0.00,CLR,,0.00,700.0,WeatherDisplay:10.37,2013-08-07 13:48:00,
2013-08-07 09:53:00,75.7,69.1,30.00,SSW,202,6.0,6.0,80,0.00,CLR,,0.00,700.0,WeatherDisplay:10.37,2013-08-07 13:53:00,
2013-08-07 09:58:00,75.4,68.8,30.00,SSW,202,5.8,5.8,80,0.00,CLR,,0.00,300.0,WeatherDisplay:10.37,2013-08-07 13:58:00,
2013-08-07 10:03:00,75.7,69.1,30.00,SSW,202,4.7,4.7,80,0.00,CLR,,0.00,600.0,WeatherDisplay:10.37,2013-08-07 14:03:00,
2013-08-07 10:08:00,75.2,69.0,30.00,SSE,158,5.8,5.8,81,0.00,CLR,,0.00,0.0,WeatherDisplay:10.37,2013-08-07 14:08:00,
2013-08-07 10:13:00,75.4,69.5,30.03,WSW,248,3.5,3.5,82,0.00,CLR,,0.00,0.0,WeatherDisplay:10.37,2013-08-07 14:13:00,
2013-08-07 10:18:00,74.8,69.0,30.03,SSW,202,5.8,5.8,82,0.00,CLR,,0.00,0.0,WeatherDisplay:10.37,2013-08-07 14:18:00,
2013-08-07 10:23:00,75.0,69.1,30.03,SSW,202,6.0,6.0,82,0.00,CLR,,0.00,0.0,WeatherDisplay:10.37,2013-08-07 14:23:00,
2013-08-07 10:28:00,74.7,69.2,30.03,WSW,248,4.7,4.7,83,0.00,CLR,,0.00,0.0,WeatherDisplay:10.37,2013-08-07 14:28:00,
2013-08-07 10:33:00,74.7,69.2,30.03,SSW,202,4.6,4.6,83,0.00,CLR,,0.00,100.0,WeatherDisplay:10.37,2013-08-07 14:33:00,
2013-08-07 10:38:00,75.2,69.7,30.03,SSW,202,5.8,5.8,83,0.00,CLR,,0.00,900.0,WeatherDisplay:10.37,2013-08-07 14:38:00,
2013-08-07 10:43:00,77.2,70.5,30.03,SSW,202,3.8,3.8,80,0.00,CLR,,0.00,1300.0,WeatherDisplay:10.37,2013-08-07 14:43:00,
2013-08-07 10:48:00,77.2,70.2,30.03,SSW,202,4.0,4.0,79,0.00,CLR,,0.00,600.0,WeatherDisplay:10.37,2013-08-07 14:48:00,
2013-08-07 10:53:00,77.5,70.5,30.03,South,180,5.8,5.8,79,0.00,CLR,,0.00,1200.0,WeatherDisplay:10.37,2013-08-07 14:53:00,
2013-08-07 10:58:00,77.9,70.5,30.03,SSW,202,8.1,8.1,78,0.00,CLR,,0.00,1400.0,WeatherDisplay:10.37,2013-08-07 14:58:00,
2013-08-07 11:03:00,80.1,71.8,30.03,SSW,202,5.9,5.9,76,0.00,CLR,,0.00,1400.0,WeatherDisplay:10.37,2013-08-07 15:03:00,
2013-08-07 11:08:00,81.5,72.4,30.03,SSW,202,5.9,5.9,74,0.00,CLR,,0.00,1100.0,WeatherDisplay:10.37,2013-08-07 15:08:00,
2013-08-07 11:13:00,82.8,72.0,30.03,West,270,4.6,4.6,70,0.00,CLR,,0.00,1100.0,WeatherDisplay:10.37,2013-08-07 15:13:00,
2013-08-07 11:18:00,83.7,72.0,30.03,WNW,292,6.2,6.2,68,0.00,CLR,,0.00,1600.0,WeatherDisplay:10.37,2013-08-07 15:18:00,
2013-08-07 11:23:00,81.5,70.3,30.03,South,180,5.8,5.8,69,0.00,CLR,,0.00,400.0,WeatherDisplay:10.37,2013-08-07 15:23:00,
2013-08-07 11:28:00,81.0,71.1,30.03,WNW,292,4.6,4.6,72,0.00,CLR,,0.00,600.0,WeatherDisplay:10.37,2013-08-07 15:28:00,
2013-08-07 11:33:00,81.0,71.1,30.03,SSW,202,5.9,5.9,72,0.00,CLR,,0.00,700.0,WeatherDisplay:10.37,2013-08-07 15:33:00,
2013-08-07 11:38:00,80.2,71.6,30.03,WSW,248,4.3,4.3,75,0.00,CLR,,0.00,700.0,WeatherDisplay:10.37,2013-08-07 15:38:00,
2013-08-07 11:43:00,81.5,72.4,30.03,West,270,4.6,4.6,74,0.00,CLR,,0.00,1300.0,WeatherDisplay:10.37,2013-08-07 15:43:00,
2013-08-07 11:48:00,82.0,72.1,30.03,SSW,202,7.8,7.8,72,0.00,CLR,,0.00,1100.0,WeatherDisplay:10.37,2013-08-07 15:48:00,
2013-08-07 11:53:00,82.2,72.7,30.03,SSE,158,4.6,4.6,73,0.00,CLR,,0.00,1200.0,WeatherDisplay:10.37,2013-08-07 15:53:00,
2013-08-07 11:58:00,82.2,72.7,30.03,SSW,202,5.8,5.8,73,0.00,CLR,,0.00,1000.0,WeatherDisplay:10.37,2013-08-07 15:58:00,
2013-08-07 12:03:00,81.5,72.0,30.03,SSW,202,6.9,6.9,73,0.00,CLR,,0.00,1100.0,WeatherDisplay:10.37,2013-08-07 16:03:00,
2013-08-07 12:08:00,82.9,72.6,30.03,SSW,202,10.2,10.2,71,0.00,CLR,,0.00,1100.0,WeatherDisplay:10.37,2013-08-07 16:08:00,
2013-08-07 12:13:00,83.8,73.0,30.03,SSW,202,7.1,7.1,70,0.00,CLR,,0.00,1100.0,WeatherDisplay:10.37,2013-08-07 16:13:00,
2013-08-07 12:18:00,83.8,73.0,30.00,SSE,158,6.9,6.9,70,0.00,CLR,,0.00,800.0,WeatherDisplay:10.37,2013-08-07 16:18:00,
2013-08-07 12:23:00,83.8,72.6,30.00,SW,225,8.1,8.1,69,0.00,CLR,,0.00,800.0,WeatherDisplay:10.37,2013-08-07 16:23:00,
2013-08-07 12:28:00,83.8,72.6,30.00,SSW,202,8.5,8.5,69,0.00,CLR,,0.00,1400.0,WeatherDisplay:10.37,2013-08-07 16:28:00,
2013-08-07 12:33:00,83.8,73.0,30.00,South,180,8.1,8.1,70,0.00,CLR,,0.00,1200.0,WeatherDisplay:10.37,2013-08-07 16:33:00,
2013-08-07 12:38:00,84.4,72.7,30.00,SSW,202,8.1,8.1,68,0.00,CLR,,0.00,1600.0,WeatherDisplay:10.37,2013-08-07 16:38:00,
2013-08-07 12:43:00,85.3,72.6,30.00,SSW,202,5.8,5.8,66,0.00,CLR,,0.00,1600.0,WeatherDisplay:10.37,2013-08-07 16:43:00,
2013-08-07 12:48:00,84.2,72.5,30.00,South,180,10.4,10.4,68,0.00,CLR,,0.00,1600.0,WeatherDisplay:10.37,2013-08-07 16:48:00,
2013-08-07 12:53:00,85.6,73.4,30.00,SSE,158,9.2,9.2,67,0.00,CLR,,0.00,1600.0,WeatherDisplay:10.37,2013-08-07 16:53:00,
2013-08-07 12:58:00,85.5,72.3,30.00,SSE,158,9.2,9.2,65,0.00,CLR,,0.00,1600.0,WeatherDisplay:10.37,2013-08-07 16:58:00,
2013-08-07 13:03:00,86.2,73.0,30.00,SSW,202,8.5,8.5,65,0.00,CLR,,0.00,1600.0,WeatherDisplay:10.37,2013-08-07 17:03:00,
2013-08-07 13:08:00,86.4,72.7,30.00,WSW,248,5.8,5.8,64,0.00,CLR,,0.00,1400.0,WeatherDisplay:10.37,2013-08-07 17:08:00,
2013-08-07 13:13:00,86.4,71.8,30.00,WSW,248,10.4,10.4,62,0.00,CLR,,0.00,1400.0,WeatherDisplay:10.37,2013-08-07 17:13:00,
2013-08-07 13:18:00,86.7,72.1,30.00,SSE,158,5.8,5.8,62,0.00,CLR,,0.00,1400.0,WeatherDisplay:10.37,2013-08-07 17:18:00,
2013-08-07 13:23:00,85.6,71.6,30.00,SSE,158,8.1,8.1,63,0.00,CLR,,0.00,900.0,WeatherDisplay:10.37,2013-08-07 17:23:00,
2013-08-07 13:28:00,86.0,72.4,30.00,WNW,292,4.7,4.7,64,0.00,CLR,,0.00,1500.0,WeatherDisplay:10.37,2013-08-07 17:28:00,
2013-08-07 13:33:00,86.7,72.1,30.00,SSW,202,6.9,6.9,62,0.00,CLR,,0.00,1400.0,WeatherDisplay:10.37,2013-08-07 17:33:00,
2013-08-07 13:38:00,87.1,72.5,30.00,SSW,202,6.9,6.9,62,0.00,CLR,,0.00,1000.0,WeatherDisplay:10.37,2013-08-07 17:38:00,
2013-08-07 13:43:00,85.8,71.8,30.00,SSW,202,9.2,9.2,63,0.00,CLR,,0.00,1200.0,WeatherDisplay:10.37,2013-08-07 17:43:00,
2013-08-07 13:48:00,86.5,72.4,30.00,SSW,202,4.6,4.6,63,0.00,CLR,,0.00,1200.0,WeatherDisplay:10.37,2013-08-07 17:48:00,
2013-08-07 13:53:00,86.0,71.5,30.00,WNW,292,4.6,4.6,62,0.00,CLR,,0.00,700.0,WeatherDisplay:10.37,2013-08-07 17:53:00,
2013-08-07 13:58:00,85.5,71.9,30.00,SSW,202,4.3,4.3,64,0.00,CLR,,0.00,700.0,WeatherDisplay:10.37,2013-08-07 17:58:00,
2013-08-07 14:03:00,85.6,73.0,30.00,SSE,158,2.9,2.9,66,0.00,CLR,,0.00,600.0,WeatherDisplay:10.37,2013-08-07 18:03:00,
2013-08-07 14:08:00,85.8,72.7,30.00,West,270,4.6,4.6,65,0.00,CLR,,0.00,600.0,WeatherDisplay:10.37,2013-08-07 18:08:00,
2013-08-07 14:13:00,85.3,71.7,30.00,SSW,202,5.8,5.8,64,0.00,CLR,,0.00,900.0,WeatherDisplay:10.37,2013-08-07 18:13:00,
2013-08-07 14:23:00,85.5,72.3,30.00,SSW,202,5.8,5.8,65,0.00,CLR,,0.00,1000.0,WeatherDisplay:10.37,2013-08-07 18:23:00,
2013-08-07 14:28:00,85.5,71.9,30.00,WSW,248,8.1,8.1,64,0.00,CLR,,0.00,1100.0,WeatherDisplay:10.37,2013-08-07 18:28:00,
2013-08-07 14:33:00,85.6,72.5,30.00,SSW,202,5.8,5.8,65,0.00,CLR,,0.00,1100.0,WeatherDisplay:10.37,2013-08-07 18:33:00,
2013-08-07 14:38:00,84.9,71.8,30.00,South,180,4.6,4.6,65,0.00,CLR,,0.00,900.0,WeatherDisplay:10.37,2013-08-07 18:38:00,
2013-08-07 14:43:00,87.8,73.6,30.00,WSW,248,5.8,5.8,63,0.00,CLR,,0.00,1200.0,WeatherDisplay:10.37,2013-08-07 18:43:00,
2013-08-07 14:48:00,87.6,70.0,30.00,SSW,202,8.1,8.1,56,0.00,CLR,,0.00,1400.0,WeatherDisplay:10.37,2013-08-07 18:48:00,
2013-08-07 14:53:00,87.3,70.2,30.00,SSW,202,5.8,5.8,57,0.00,CLR,,0.00,1500.0,WeatherDisplay:10.37,2013-08-07 18:53:00,
2013-08-07 14:58:00,87.6,70.5,30.00,SSW,202,6.9,6.9,57,0.00,CLR,,0.00,1400.0,WeatherDisplay:10.37,2013-08-07 18:58:00,
2013-08-07 15:03:00,87.6,70.0,30.00,SSE,158,8.1,8.1,56,0.00,CLR,,0.00,1400.0,WeatherDisplay:10.37,2013-08-07 19:03:00,
2013-08-07 15:08:00,88.3,70.1,30.00,WNW,292,7.8,7.8,55,0.00,CLR,,0.00,1100.0,WeatherDisplay:10.37,2013-08-07 19:08:00,
2013-08-07 15:13:00,88.9,70.1,29.97,South,180,8.7,8.7,54,0.00,CLR,,0.00,1200.0,WeatherDisplay:10.37,2013-08-07 19:13:00,
2013-08-07 15:18:00,89.1,69.1,29.97,NNE,22,8.1,8.1,52,0.00,CLR,,0.00,800.0,WeatherDisplay:10.37,2013-08-07 19:18:00,
2013-08-07 15:23:00,89.4,70.0,29.97,WSW,248,6.2,6.2,53,0.00,CLR,,0.00,900.0,WeatherDisplay:10.37,2013-08-07 19:23:00,
2013-08-07 15:28:00,89.6,69.1,29.97,WSW,248,5.8,5.8,51,0.00,CLR,,0.00,1500.0,WeatherDisplay:10.37,2013-08-07 19:28:00,
2013-08-07 15:33:00,89.6,67.9,29.97,WSW,248,5.8,5.8,49,0.00,CLR,,0.00,1400.0,WeatherDisplay:10.37,2013-08-07 19:33:00,
2013-08-07 15:38:00,89.6,68.5,29.97,SSE,158,6.9,6.9,50,0.00,CLR,,0.00,1500.0,WeatherDisplay:10.37,2013-08-07 19:38:00,
2013-08-07 15:43:00,90.3,68.6,29.97,WNW,292,8.1,8.1,49,0.00,CLR,,0.00,1100.0,WeatherDisplay:10.37,2013-08-07 19:43:00,
2013-08-07 15:48:00,89.8,66.9,30.00,WNW,292,6.9,6.9,47,0.00,CLR,,0.00,700.0,WeatherDisplay:10.37,2013-08-07 19:48:00,
2013-08-07 15:53:00,88.3,66.8,30.00,WSW,248,5.8,5.8,49,0.00,SCT,,0.00,500.0,WeatherDisplay:10.37,2013-08-07 19:53:00,
2013-08-07 15:58:00,88.0,67.6,30.00,SSW,202,8.1,8.1,51,0.00,CLR,,0.00,1200.0,WeatherDisplay:10.37,2013-08-07 19:58:00,
2013-08-07 15:59:00,88.0,67.6,30.00,WNW,292,8.1,8.1,51,0.00,CLR,,0.00,1200.0,WeatherDisplay:10.37,2013-08-07 19:59:00,
2013-08-07 16:04:00,88.5,67.5,30.00,WNW,292,7.1,7.1,50,0.00,CLR,,0.00,1200.0,WeatherDisplay:10.37,2013-08-07 20:04:00,
2013-08-07 16:09:00,88.2,68.3,30.00,South,180,4.9,4.9,52,0.00,CLR,,0.00,1500.0,WeatherDisplay:10.37,2013-08-07 20:09:00,
2013-08-07 16:14:00,88.7,68.2,29.97,SSW,202,8.1,8.1,51,0.00,CLR,,0.00,1000.0,WeatherDisplay:10.37,2013-08-07 20:14:00,
2013-08-07 16:19:00,88.9,67.8,29.97,WNW,292,5.8,5.8,50,0.00,CLR,,0.00,1400.0,WeatherDisplay:10.37,2013-08-07 20:19:00,
2013-08-07 16:24:00,90.0,67.6,29.97,WSW,248,4.6,4.6,48,0.00,CLR,,0.00,1300.0,WeatherDisplay:10.37,2013-08-07 20:24:00,
2013-08-07 16:29:00,88.7,67.7,29.97,WNW,292,9.2,9.2,50,0.00,CLR,,0.00,900.0,WeatherDisplay:10.37,2013-08-07 20:29:00,
2013-08-07 16:34:00,89.2,68.7,29.97,WNW,292,5.8,5.8,51,0.00,CLR,,0.00,1400.0,WeatherDisplay:10.37,2013-08-07 20:34:00,
2013-08-07 16:39:00,89.4,68.9,29.97,ESE,112,5.6,5.6,51,0.00,CLR,,0.00,1300.0,WeatherDisplay:10.37,2013-08-07 20:39:00,
2013-08-07 16:44:00,89.6,69.6,29.97,SSW,202,3.5,3.5,52,0.00,CLR,,0.00,1200.0,WeatherDisplay:10.37,2013-08-07 20:44:00,
2013-08-07 16:49:00,87.6,68.4,29.97,SSW,202,5.8,5.9,53,0.00,FEW,,0.00,700.0,WeatherDisplay:10.37,2013-08-07 20:49:00,
2013-08-07 16:54:00,86.9,68.3,29.97,SSE,158,8.1,8.1,54,0.00,FEW,,0.00,1200.0,WeatherDisplay:10.37,2013-08-07 20:54:00,
2013-08-07 16:59:00,87.6,69.5,29.97,SSE,158,5.8,5.8,55,0.00,CLR,,0.00,1200.0,WeatherDisplay:10.37,2013-08-07 20:59:00,
2013-08-07 17:04:00,87.1,69.5,29.97,SSW,202,4.6,4.6,56,0.00,SCT,,0.00,500.0,WeatherDisplay:10.37,2013-08-07 21:04:00,
2013-08-07 17:09:00,86.4,69.3,29.97,SSE,158,8.1,8.1,57,0.00,BKN,,0.00,500.0,WeatherDisplay:10.37,2013-08-07 21:09:00,
2013-08-07 17:14:00,85.8,69.8,29.97,SSE,158,4.6,4.6,59,0.00,SCT,,0.00,600.0,WeatherDisplay:10.37,2013-08-07 21:14:00,
2013-08-07 17:19:00,85.8,70.3,29.97,WSW,248,9.2,9.2,60,0.00,BKN,,0.00,200.0,WeatherDisplay:10.37,2013-08-07 21:19:00,
2013-08-07 17:24:00,84.4,69.5,29.97,SSE,158,9.2,9.2,61,0.00,BKN,,0.00,200.0,WeatherDisplay:10.37,2013-08-07 21:24:00,
2013-08-07 17:29:00,83.8,69.9,29.97,SSW,202,8.1,8.1,63,0.00,BKN,,0.00,300.0,WeatherDisplay:10.37,2013-08-07 21:29:00,
2013-08-07 17:34:00,83.8,70.4,29.97,South,180,6.4,6.4,64,0.00,BKN,,0.00,500.0,WeatherDisplay:10.37,2013-08-07 21:34:00,
2013-08-07 17:39:00,84.2,70.7,29.97,South,180,6.9,6.9,64,0.00,BKN,,0.00,200.0,WeatherDisplay:10.37,2013-08-07 21:39:00,
2013-08-07 17:44:00,83.5,70.0,29.97,SSW,202,6.9,6.9,64,0.00,BKN,,0.00,300.0,WeatherDisplay:10.37,2013-08-07 21:44:00,
2013-08-07 17:49:00,83.8,70.8,29.97,SSE,158,4.6,4.6,65,0.00,BKN,,0.00,200.0,WeatherDisplay:10.37,2013-08-07 21:49:00,
2013-08-07 17:54:00,83.7,70.6,29.97,SSW,202,5.8,5.8,65,0.00,CLR,,0.00,0.0,WeatherDisplay:10.37,2013-08-07 21:54:00,
2013-08-07 17:59:00,84.2,70.2,29.97,WNW,292,8.1,8.1,63,0.00,BKN,,0.00,100.0,WeatherDisplay:10.37,2013-08-07 21:59:00,
2013-08-07 18:04:00,84.2,70.2,29.97,SSW,202,5.8,5.8,63,0.00,BKN,,0.00,100.0,WeatherDisplay:10.37,2013-08-07 22:04:00,
2013-08-07 18:09:00,83.7,70.2,29.97,WSW,248,5.8,5.8,64,0.00,BKN,,0.00,100.0,WeatherDisplay:10.37,2013-08-07 22:09:00,
2013-08-07 18:14:00,83.8,69.9,29.97,WNW,292,9.2,9.2,63,0.00,BKN,,0.00,300.0,WeatherDisplay:10.37,2013-08-07 22:14:00,
2013-08-07 18:19:00,84.0,70.1,29.97,WSW,248,8.1,8.1,63,0.00,BKN,,0.00,300.0,WeatherDisplay:10.37,2013-08-07 22:19:00,
2013-08-07 18:24:00,83.7,69.7,29.97,WSW,248,4.6,4.6,63,0.00,BKN,,0.00,300.0,WeatherDisplay:10.37,2013-08-07 22:24:00,
2013-08-07 18:29:00,83.5,69.6,29.97,WNW,292,6.9,6.9,63,0.00,BKN,,0.00,300.0,WeatherDisplay:10.37,2013-08-07 22:29:00,
2013-08-07 18:34:00,83.5,69.6,29.97,SSW,202,5.8,5.8,63,0.00,CLR,,0.00,0.0,WeatherDisplay:10.37,2013-08-07 22:34:00,
2013-08-07 18:39:00,83.3,69.8,29.97,WSW,248,4.6,4.6,64,0.00,CLR,,0.00,0.0,WeatherDisplay:10.37,2013-08-07 22:39:00,
2013-08-07 18:44:00,82.9,69.5,29.97,SSW,202,5.8,5.8,64,0.00,CLR,,0.00,0.0,WeatherDisplay:10.37,2013-08-07 22:44:00,
2013-08-07 18:49:00,82.9,70.0,29.97,South,180,8.1,8.1,65,0.00,CLR,,0.00,0.0,WeatherDisplay:10.37,2013-08-07 22:49:00,
2013-08-07 18:54:00,82.6,70.1,29.97,SSW,202,6.9,6.9,66,0.00,CLR,,0.00,0.0,WeatherDisplay:10.37,2013-08-07 22:54:00,
2013-08-07 18:59:00,82.8,70.2,29.97,WSW,248,5.8,5.8,66,0.00,CLR,,0.00,0.0,WeatherDisplay:10.37,2013-08-07 22:59:00,
2013-08-07 19:04:00,82.8,70.7,29.97,SSE,158,5.8,5.8,67,0.00,CLR,,0.00,0.0,WeatherDisplay:10.37,2013-08-07 23:04:00,
2013-08-07 19:09:00,82.8,70.2,29.97,SW,225,4.6,4.6,66,0.00,CLR,,0.00,0.0,WeatherDisplay:10.37,2013-08-07 23:09:00,
2013-08-07 19:14:00,82.9,70.9,29.97,SW,225,6.2,6.2,67,0.00,CLR,,0.00,0.0,WeatherDisplay:10.37,2013-08-07 23:14:00,
2013-08-07 19:19:00,82.0,70.4,29.97,South,180,4.9,4.9,68,0.00,CLR,,0.00,0.0,WeatherDisplay:10.37,2013-08-07 23:19:00,
2013-08-07 19:24:00,81.3,70.2,29.97,SSW,202,4.9,4.9,69,0.00,CLR,,0.00,0.0,WeatherDisplay:10.37,2013-08-07 23:24:00,
2013-08-07 19:29:00,81.1,70.4,29.97,WSW,248,3.5,3.5,70,0.00,CLR,,0.00,0.0,WeatherDisplay:10.37,2013-08-07 23:29:00,
2013-08-07 19:34:00,81.1,70.4,29.97,SSW,202,3.5,3.5,70,0.00,CLR,,0.00,0.0,WeatherDisplay:10.37,2013-08-07 23:34:00,
2013-08-07 19:39:00,81.0,70.7,29.97,SSW,202,5.8,5.8,71,0.00,CLR,,0.00,0.0,WeatherDisplay:10.37,2013-08-07 23:39:00,
2013-08-07 19:44:00,81.0,70.7,29.97,SSW,202,3.5,3.5,71,0.00,CLR,,0.00,0.0,WeatherDisplay:10.37,2013-08-07 23:44:00,
2013-08-07 19:49:00,81.0,70.7,29.97,SSW,202,5.8,5.8,71,0.00,CLR,,0.00,0.0,WeatherDisplay:10.37,2013-08-07 23:49:00,
2013-08-07 19:54:00,80.8,70.5,29.97,SSW,202,4.6,4.6,71,0.00,CLR,,0.00,0.0,WeatherDisplay:10.37,2013-08-07 23:54:00,
2013-08-07 19:59:00,80.6,70.7,29.97,South,180,3.5,3.5,72,0.00,CLR,,0.00,0.0,WeatherDisplay:10.37,2013-08-07 23:59:00,
2013-08-07 20:04:00,80.2,70.8,29.97,SSW,202,3.8,3.8,73,0.00,CLR,,0.00,0.0,WeatherDisplay:10.37,2013-08-08 00:04:00,
2013-08-07 20:09:00,80.1,71.0,29.97,SSW,202,2.3,2.3,74,0.00,CLR,,0.00,0.0,WeatherDisplay:10.37,2013-08-08 00:09:00,
2013-08-07 20:14:00,79.7,71.1,29.97,South,180,2.3,2.4,75,0.00,CLR,,0.00,0.0,WeatherDisplay:10.37,2013-08-08 00:14:00,
2013-08-07 20:19:00,79.5,70.9,29.97,ESE,112,2.3,2.3,75,0.00,CLR,,0.00,0.0,WeatherDisplay:10.37,2013-08-08 00:19:00,
2013-08-07 20:24:00,79.0,71.9,29.97,SSE,158,4.0,4.0,79,0.00,CLR,,0.00,0.0,WeatherDisplay:10.37,2013-08-08 00:24:00,
2013-08-07 20:29:00,78.6,72.3,29.97,SSW,202,2.3,2.3,81,0.00,CLR,,0.00,0.0,WeatherDisplay:10.37,2013-08-08 00:29:00,
2013-08-07 20:34:00,78.3,72.3,29.97,SSW,202,3.5,3.5,82,0.00,CLR,,0.00,0.0,WeatherDisplay:10.37,2013-08-08 00:34:00,
2013-08-07 20:39:00,77.9,72.7,29.97,SSE,158,3.5,3.5,84,0.00,CLR,,0.00,0.0,WeatherDisplay:10.37,2013-08-08 00:39:00,
2013-08-07 20:44:00,77.5,72.7,29.97,SSW,202,3.1,3.1,85,0.00,CLR,,0.00,0.0,WeatherDisplay:10.37,2013-08-08 00:44:00,
2013-08-07 20:49:00,77.2,72.3,29.97,South,180,3.5,3.5,85,0.00,CLR,,0.00,0.0,WeatherDisplay:10.37,2013-08-08 00:49:00,
2013-08-07 20:54:00,77.0,72.5,29.97,SSW,202,3.1,3.1,86,0.00,CLR,,0.00,0.0,WeatherDisplay:10.37,2013-08-08 00:54:00,
2013-08-07 20:59:00,76.6,72.1,30.00,SSE,158,3.5,3.5,86,0.00,CLR,,0.00,0.0,WeatherDisplay:10.37,2013-08-08 00:59:00,
2013-08-07 21:04:00,76.5,72.3,30.00,ESE,112,3.5,3.5,87,0.00,CLR,,0.00,0.0,WeatherDisplay:10.37,2013-08-08 01:04:00,
2013-08-07 21:09:00,76.1,71.9,30.00,SSE,158,2.3,2.3,87,0.00,CLR,,0.00,0.0,WeatherDisplay:10.37,2013-08-08 01:09:00,
2013-08-07 21:15:00,75.9,72.1,30.00,South,180,2.9,2.9,88,0.00,CLR,,0.00,0.0,WeatherDisplay:10.37,2013-08-08 01:15:00,
2013-08-07 21:20:00,75.7,71.9,30.00,SSE,158,2.3,2.4,88,0.00,CLR,,0.00,0.0,WeatherDisplay:10.37,2013-08-08 01:20:00,
2013-08-07 21:25:00,75.6,71.8,30.00,South,180,2.0,6.0,88,0.00,CLR,,0.00,0.0,WeatherDisplay:10.37,2013-08-08 01:25:00,
2013-08-07 21:30:00,75.4,71.6,29.97,South,188,2.0,5.0,88,0.00,CLR,,0.00,0.0,WeatherDisplay:10.37,2013-08-08 01:30:00,
2013-08-07 21:35:00,75.2,71.4,29.97,SSE,158,2.3,2.3,88,0.00,CLR,,0.00,0.0,WeatherDisplay:10.37,2013-08-08 01:35:00,
2013-08-07 21:40:00,75.0,71.6,29.97,SSW,202,2.3,2.3,89,0.00,CLR,,0.00,0.0,WeatherDisplay:10.37,2013-08-08 01:40:00,
2013-08-07 21:45:00,74.8,71.4,30.00,South,175,2.0,3.0,89,0.00,CLR,,0.00,0.0,WeatherDisplay:10.37,2013-08-08 01:45:00,
2013-08-07 21:50:00,74.7,71.2,30.00,SSE,158,3.5,3.5,89,0.00,CLR,,0.00,0.0,WeatherDisplay:10.37,2013-08-08 01:50:00,
2013-08-07 21:55:00,74.7,71.5,30.00,South,184,2.0,3.0,90,0.00,CLR,,0.00,0.0,WeatherDisplay:10.37,2013-08-08 01:55:00,
2013-08-07 22:00:00,74.5,71.4,30.00,SSW,202,1.2,0.0,90,0.00,CLR,,0.00,0.0,WeatherDisplay:10.37,2013-08-08 02:00:00,
2013-08-07 22:05:00,74.5,71.0,30.00,SSW,202,2.0,2.0,89,0.00,CLR,,0.00,0.0,WeatherDisplay:10.37,2013-08-08 02:05:00,
2013-08-07 22:10:00,74.5,71.4,30.00,SSE,158,2.3,2.3,90,0.00,CLR,,0.00,0.0,WeatherDisplay:10.37,2013-08-08 02:10:00,
2013-08-07 22:15:00,74.3,71.2,30.00,SSE,154,1.0,2.0,90,0.00,CLR,,0.00,0.0,WeatherDisplay:10.37,2013-08-08 02:15:00,
2013-08-07 22:20:00,74.3,71.2,30.00,SSE,153,0.0,2.0,90,0.00,CLR,,0.00,0.0,WeatherDisplay:10.37,2013-08-08 02:20:00,
2013-08-07 22:25:00,74.5,71.4,30.00,SSE,161,1.0,3.0,90,0.00,CLR,,0.00,0.0,WeatherDisplay:10.37,2013-08-08 02:25:00,
2013-08-07 22:30:00,74.3,71.2,30.00,SSE,158,0.0,0.0,90,0.00,CLR,,0.00,0.0,WeatherDisplay:10.37,2013-08-08 02:30:00,
2013-08-07 22:35:00,74.3,70.8,30.00,SSE,157,0.0,0.0,89,0.00,CLR,,0.00,0.0,WeatherDisplay:10.37,2013-08-08 02:35:00,
2013-08-07 22:40:00,74.3,71.2,30.00,SE,143,0.0,2.0,90,0.00,CLR,,0.00,0.0,WeatherDisplay:10.37,2013-08-08 02:40:00,
2013-08-07 22:45:00,73.9,70.8,30.03,ESE,112,1.2,0.0,90,0.00,CLR,,0.00,0.0,WeatherDisplay:10.37,2013-08-08 02:45:00,
2013-08-07 22:50:00,73.9,70.5,30.03,ESE,112,0.9,0.0,89,0.00,CLR,,0.00,0.0,WeatherDisplay:10.37,2013-08-08 02:50:00,
2013-08-07 22:55:00,73.8,70.6,30.03,SSE,158,0.0,0.0,90,0.00,CLR,,0.00,0.0,WeatherDisplay:10.37,2013-08-08 02:55:00,
2013-08-07 23:00:00,73.8,70.6,30.03,SE,135,0.0,0.0,90,0.00,CLR,,0.00,0.0,WeatherDisplay:10.37,2013-08-08 03:00:00,
2013-08-07 23:05:00,73.8,70.6,30.03,SSE,158,2.3,2.3,90,0.00,CLR,,0.00,0.0,WeatherDisplay:10.37,2013-08-08 03:05:00,
2013-08-07 23:10:00,73.6,70.5,30.03,SSE,158,0.0,0.0,90,0.00,CLR,,0.00,0.0,WeatherDisplay:10.37,2013-08-08 03:10:00,
2013-08-07 23:15:00,73.8,70.6,30.03,ESE,112,1.2,0.0,90,0.00,CLR,,0.00,0.0,WeatherDisplay:10.37,2013-08-08 03:15:00,
2013-08-07 23:20:00,73.8,71.0,30.03,South,180,1.2,0.0,91,0.00,CLR,,0.00,0.0,WeatherDisplay:10.37,2013-08-08 03:20:00,
2013-08-07 23:25:00,73.8,71.3,30.03,SSE,158,2.9,2.9,92,0.00,CLR,,0.00,0.0,WeatherDisplay:10.37,2013-08-08 03:25:00,
2013-08-07 23:30:00,73.6,71.4,30.00,ESE,112,8.1,8.1,93,0.00,CLR,,0.00,0.0,WeatherDisplay:10.37,2013-08-08 03:30:00,
2013-08-07 23:35:00,73.6,71.4,30.00,ESE,112,5.8,5.8,93,0.00,CLR,,0.00,0.0,WeatherDisplay:10.37,2013-08-08 03:35:00,
2013-08-07 23:40:00,73.4,71.3,30.00,SSE,158,2.4,2.4,93,0.00,CLR,,0.00,0.0,WeatherDisplay:10.37,2013-08-08 03:40:00,
2013-08-07 23:45:00,73.2,71.1,30.00,SSW,202,2.3,2.3,93,0.00,CLR,,0.00,0.0,WeatherDisplay:10.37,2013-08-08 03:45:00,
2013-08-07 23:50:00,73.0,71.2,30.00,North,0,1.4,0.0,94,0.00,CLR,,0.00,0.0,WeatherDisplay:10.37,2013-08-08 03:50:00,
2013-08-07 23:55:00,73.0,71.2,30.00,ENE,68,1.2,0.0,94,0.00,CLR,,0.00,0.0,WeatherDisplay:10.37,2013-08-08 03:55:00,